sensor_id;sensor_type;location;lat;lon;timestamp;pressure;altitude;pressure_sealevel;temperature;humidity
13593;BME280;6867;50.998;4.250;2023-04-29T00:02:15;101274.59;;;13.67;71.80
13593;BME280;6867;50.998;4.250;2023-04-29T00:04:42;101267.94;;;13.70;71.70
13593;BME280;6867;50.998;4.250;2023-04-29T00:07:10;101274.59;;;13.67;71.44
13593;BME280;6867;50.998;4.250;2023-04-29T00:09:39;101272.06;;;13.34;71.86
13593;BME280;6867;50.998;4.250;2023-04-29T00:12:06;101271.94;;;13.61;72.03
13593;BME280;6867;50.998;4.250;2023-04-29T00:14:34;101266.00;;;13.84;71.15
13593;BME280;6867;50.998;4.250;2023-04-29T00:17:00;101271.38;;;13.45;72.01
13593;BME280;6867;50.998;4.250;2023-04-29T00:19:27;101267.00;;;13.44;71.37
13593;BME280;6867;50.998;4.250;2023-04-29T00:21:54;101258.59;;;13.66;71.29
13593;BME280;6867;50.998;4.250;2023-04-29T00:24:22;101254.75;;;13.87;70.46
13593;BME280;6867;50.998;4.250;2023-04-29T00:26:49;101259.16;;;13.81;70.60
13593;BME280;6867;50.998;4.250;2023-04-29T00:29:16;101240.50;;;13.73;70.04
13593;BME280;6867;50.998;4.250;2023-04-29T00:31:42;101270.44;;;13.65;70.86
13593;BME280;6867;50.998;4.250;2023-04-29T00:34:10;101273.56;;;13.62;70.78
13593;BME280;6867;50.998;4.250;2023-04-29T00:36:37;101292.94;;;13.52;71.76
13593;BME280;6867;50.998;4.250;2023-04-29T00:39:03;101278.06;;;13.75;71.13
13593;BME280;6867;50.998;4.250;2023-04-29T00:41:32;101277.41;;;13.79;70.90
13593;BME280;6867;50.998;4.250;2023-04-29T00:43:58;101286.00;;;13.69;71.29
13593;BME280;6867;50.998;4.250;2023-04-29T00:46:25;101279.50;;;13.84;70.61
13593;BME280;6867;50.998;4.250;2023-04-29T00:48:52;101285.44;;;13.61;71.00
13593;BME280;6867;50.998;4.250;2023-04-29T00:51:18;101283.84;;;13.47;71.04
13593;BME280;6867;50.998;4.250;2023-04-29T00:53:45;101291.66;;;13.61;70.71
13593;BME280;6867;50.998;4.250;2023-04-29T00:56:12;101287.44;;;13.72;70.74
13593;BME280;6867;50.998;4.250;2023-04-29T00:58:42;101295.16;;;13.68;70.71
13593;BME280;6867;50.998;4.250;2023-04-29T01:01:14;101284.34;;;13.68;70.25
13593;BME280;6867;50.998;4.250;2023-04-29T01:03:42;101298.97;;;13.48;70.95
13593;BME280;6867;50.998;4.250;2023-04-29T01:06:21;101315.34;;;13.59;71.02
13593;BME280;6867;50.998;4.250;2023-04-29T01:09:00;101310.97;;;13.58;70.90
13593;BME280;6867;50.998;4.250;2023-04-29T01:11:34;101311.19;;;13.57;70.71
13593;BME280;6867;50.998;4.250;2023-04-29T01:14:06;101322.50;;;13.34;71.44
13593;BME280;6867;50.998;4.250;2023-04-29T01:16:37;101318.34;;;13.18;71.57
13593;BME280;6867;50.998;4.250;2023-04-29T01:19:15;101313.59;;;13.13;70.92
13593;BME280;6867;50.998;4.250;2023-04-29T01:21:46;101323.81;;;12.65;71.82
13593;BME280;6867;50.998;4.250;2023-04-29T01:24:15;101331.88;;;12.98;71.98
13593;BME280;6867;50.998;4.250;2023-04-29T01:26:50;101320.28;;;12.78;71.71
13593;BME280;6867;50.998;4.250;2023-04-29T01:29:22;101339.38;;;12.63;72.59
13593;BME280;6867;50.998;4.250;2023-04-29T01:31:57;101355.72;;;12.94;72.36
13593;BME280;6867;50.998;4.250;2023-04-29T01:34:32;101340.97;;;13.04;71.96
13593;BME280;6867;50.998;4.250;2023-04-29T01:37:05;101332.94;;;12.64;72.28
13593;BME280;6867;50.998;4.250;2023-04-29T01:39:44;101349.31;;;12.76;72.54
13593;BME280;6867;50.998;4.250;2023-04-29T01:42:16;101341.44;;;12.81;72.20
13593;BME280;6867;50.998;4.250;2023-04-29T01:44:46;101340.59;;;12.40;72.49
13593;BME280;6867;50.998;4.250;2023-04-29T01:47:15;101338.13;;;12.92;71.87
13593;BME280;6867;50.998;4.250;2023-04-29T01:49:42;101343.50;;;12.65;71.73
13593;BME280;6867;50.998;4.250;2023-04-29T01:52:11;101333.97;;;12.76;71.63
13593;BME280;6867;50.998;4.250;2023-04-29T01:54:39;101331.69;;;12.66;71.21
13593;BME280;6867;50.998;4.250;2023-04-29T01:57:06;101302.88;;;12.80;70.48
13593;BME280;6867;50.998;4.250;2023-04-29T01:59:32;101318.19;;;12.66;70.82
13593;BME280;6867;50.998;4.250;2023-04-29T02:01:59;101315.09;;;12.89;70.29
13593;BME280;6867;50.998;4.250;2023-04-29T02:04:26;101303.28;;;12.64;70.51
13593;BME280;6867;50.998;4.250;2023-04-29T02:06:53;101306.78;;;12.91;70.22
13593;BME280;6867;50.998;4.250;2023-04-29T02:09:19;101309.69;;;12.83;70.18
13593;BME280;6867;50.998;4.250;2023-04-29T02:11:47;101312.59;;;12.75;70.14
13593;BME280;6867;50.998;4.250;2023-04-29T02:14:14;101315.94;;;12.50;70.53
13593;BME280;6867;50.998;4.250;2023-04-29T02:16:43;101341.41;;;12.34;71.22
13593;BME280;6867;50.998;4.250;2023-04-29T02:19:09;101321.31;;;12.70;70.49
13593;BME280;6867;50.998;4.250;2023-04-29T02:21:36;101302.47;;;12.50;70.14
13593;BME280;6867;50.998;4.250;2023-04-29T02:24:04;101320.50;;;12.63;70.23
13593;BME280;6867;50.998;4.250;2023-04-29T02:26:31;101319.88;;;12.61;69.89
13593;BME280;6867;50.998;4.250;2023-04-29T02:28:59;101316.72;;;12.90;69.17
13593;BME280;6867;50.998;4.250;2023-04-29T02:31:27;101306.16;;;12.89;69.12
13593;BME280;6867;50.998;4.250;2023-04-29T02:33:54;101298.31;;;12.81;68.50
13593;BME280;6867;50.998;4.250;2023-04-29T02:36:21;101338.53;;;12.56;70.22
13593;BME280;6867;50.998;4.250;2023-04-29T02:38:48;101351.81;;;12.64;70.39
13593;BME280;6867;50.998;4.250;2023-04-29T02:41:15;101340.59;;;12.74;69.87
13593;BME280;6867;50.998;4.250;2023-04-29T02:43:43;101339.97;;;12.32;70.20
13593;BME280;6867;50.998;4.250;2023-04-29T02:46:11;101374.78;;;12.53;71.13
13593;BME280;6867;50.998;4.250;2023-04-29T02:48:37;101372.09;;;12.66;70.87
13593;BME280;6867;50.998;4.250;2023-04-29T02:51:04;101359.50;;;12.67;70.24
13593;BME280;6867;50.998;4.250;2023-04-29T02:53:31;101372.91;;;12.40;71.00
13593;BME280;6867;50.998;4.250;2023-04-29T02:55:58;101353.06;;;12.55;70.39
13593;BME280;6867;50.998;4.250;2023-04-29T02:58:24;101354.91;;;12.74;70.35
13593;BME280;6867;50.998;4.250;2023-04-29T03:00:51;101357.63;;;12.67;70.11
13593;BME280;6867;50.998;4.250;2023-04-29T03:03:19;101350.97;;;12.90;70.15
13593;BME280;6867;50.998;4.250;2023-04-29T03:05:47;101353.44;;;12.38;70.30
13593;BME280;6867;50.998;4.250;2023-04-29T03:08:14;101376.59;;;12.19;71.26
13593;BME280;6867;50.998;4.250;2023-04-29T03:10:41;101376.84;;;12.44;71.27
13593;BME280;6867;50.998;4.250;2023-04-29T03:13:08;101383.72;;;12.47;70.94
13593;BME280;6867;50.998;4.250;2023-04-29T03:15:34;101384.06;;;12.24;71.14
13593;BME280;6867;50.998;4.250;2023-04-29T03:18:01;101386.00;;;12.50;71.05
13593;BME280;6867;50.998;4.250;2023-04-29T03:20:30;101371.91;;;12.68;70.43
13593;BME280;6867;50.998;4.250;2023-04-29T03:22:57;101371.88;;;12.35;70.70
13593;BME280;6867;50.998;4.250;2023-04-29T03:25:25;101387.66;;;12.51;71.09
13593;BME280;6867;50.998;4.250;2023-04-29T03:27:52;101381.84;;;12.48;71.14
13593;BME280;6867;50.998;4.250;2023-04-29T03:30:19;101376.88;;;12.58;70.84
13593;BME280;6867;50.998;4.250;2023-04-29T03:32:46;101379.38;;;12.73;70.74
13593;BME280;6867;50.998;4.250;2023-04-29T03:35:13;101379.59;;;12.84;70.43
13593;BME280;6867;50.998;4.250;2023-04-29T03:37:41;101381.22;;;12.45;70.89
13593;BME280;6867;50.998;4.250;2023-04-29T03:40:09;101392.22;;;12.64;71.05
13593;BME280;6867;50.998;4.250;2023-04-29T03:42:36;101398.22;;;12.46;71.59
13593;BME280;6867;50.998;4.250;2023-04-29T03:45:04;101396.97;;;12.49;71.26
13593;BME280;6867;50.998;4.250;2023-04-29T03:47:30;101401.75;;;12.53;71.60
13593;BME280;6867;50.998;4.250;2023-04-29T03:49:57;101404.38;;;12.13;71.99
13593;BME280;6867;50.998;4.250;2023-04-29T03:52:24;101431.69;;;12.10;72.79
13593;BME280;6867;50.998;4.250;2023-04-29T03:54:52;101420.69;;;12.12;72.38
13593;BME280;6867;50.998;4.250;2023-04-29T03:57:19;101411.28;;;12.56;71.51
13593;BME280;6867;50.998;4.250;2023-04-29T03:59:46;101416.41;;;12.24;71.76
13593;BME280;6867;50.998;4.250;2023-04-29T04:02:14;101424.09;;;12.34;71.93
13593;BME280;6867;50.998;4.250;2023-04-29T04:04:41;101427.94;;;12.05;72.45
13593;BME280;6867;50.998;4.250;2023-04-29T04:07:08;101420.38;;;12.35;71.92
13593;BME280;6867;50.998;4.250;2023-04-29T04:09:36;101436.38;;;11.88;72.78
13593;BME280;6867;50.998;4.250;2023-04-29T04:12:05;101435.19;;;12.04;72.29
13593;BME280;6867;50.998;4.250;2023-04-29T04:14:32;101450.69;;;11.95;72.74
13593;BME280;6867;50.998;4.250;2023-04-29T04:16:58;101447.03;;;12.10;72.29
13593;BME280;6867;50.998;4.250;2023-04-29T04:19:25;101446.31;;;11.88;72.13
13593;BME280;6867;50.998;4.250;2023-04-29T04:21:53;101462.69;;;12.00;72.14
13593;BME280;6867;50.998;4.250;2023-04-29T04:24:20;101441.59;;;12.03;71.70
13593;BME280;6867;50.998;4.250;2023-04-29T04:26:46;101466.88;;;11.74;72.81
13593;BME280;6867;50.998;4.250;2023-04-29T04:29:15;101463.13;;;11.96;72.37
13593;BME280;6867;50.998;4.250;2023-04-29T04:31:41;101472.47;;;12.07;71.91
13593;BME280;6867;50.998;4.250;2023-04-29T04:34:08;101477.19;;;11.99;72.36
13593;BME280;6867;50.998;4.250;2023-04-29T04:36:35;101456.53;;;12.06;71.54
13593;BME280;6867;50.998;4.250;2023-04-29T04:39:02;101462.13;;;12.04;71.76
13593;BME280;6867;50.998;4.250;2023-04-29T04:41:28;101469.16;;;12.05;71.71
13593;BME280;6867;50.998;4.250;2023-04-29T04:43:56;101468.78;;;12.08;71.79
13593;BME280;6867;50.998;4.250;2023-04-29T04:46:24;101469.66;;;12.22;71.29
13593;BME280;6867;50.998;4.250;2023-04-29T04:48:51;101470.91;;;12.33;70.91
13593;BME280;6867;50.998;4.250;2023-04-29T04:51:17;101465.22;;;12.01;70.93
13593;BME280;6867;50.998;4.250;2023-04-29T04:53:45;101472.78;;;12.32;70.55
13593;BME280;6867;50.998;4.250;2023-04-29T04:56:11;101480.03;;;12.32;70.67
13593;BME280;6867;50.998;4.250;2023-04-29T04:58:38;101477.72;;;12.22;70.63
13593;BME280;6867;50.998;4.250;2023-04-29T05:01:05;101475.47;;;12.26;70.84
13593;BME280;6867;50.998;4.250;2023-04-29T05:03:33;101483.78;;;12.31;70.61
13593;BME280;6867;50.998;4.250;2023-04-29T05:05:59;101487.09;;;12.33;70.80
13593;BME280;6867;50.998;4.250;2023-04-29T05:08:27;101480.25;;;12.30;70.34
13593;BME280;6867;50.998;4.250;2023-04-29T05:10:54;101492.75;;;12.03;70.94
13593;BME280;6867;50.998;4.250;2023-04-29T05:13:22;101474.56;;;12.12;70.14
13593;BME280;6867;50.998;4.250;2023-04-29T05:15:50;101468.03;;;12.34;69.67
13593;BME280;6867;50.998;4.250;2023-04-29T05:18:16;101469.09;;;12.33;69.52
13593;BME280;6867;50.998;4.250;2023-04-29T05:20:44;101487.63;;;12.15;69.98
13593;BME280;6867;50.998;4.250;2023-04-29T05:23:11;101476.69;;;12.23;69.89
13593;BME280;6867;50.998;4.250;2023-04-29T05:25:38;101486.97;;;12.06;70.07
13593;BME280;6867;50.998;4.250;2023-04-29T05:28:06;101473.59;;;12.26;69.42
13593;BME280;6867;50.998;4.250;2023-04-29T05:30:32;101478.34;;;12.24;69.16
13593;BME280;6867;50.998;4.250;2023-04-29T05:32:59;101466.38;;;12.33;68.77
13593;BME280;6867;50.998;4.250;2023-04-29T05:35:26;101466.13;;;12.21;68.70
13593;BME280;6867;50.998;4.250;2023-04-29T05:37:54;101469.63;;;12.15;68.82
13593;BME280;6867;50.998;4.250;2023-04-29T05:40:20;101479.13;;;12.11;68.98
13593;BME280;6867;50.998;4.250;2023-04-29T05:42:48;101474.03;;;12.36;68.48
13593;BME280;6867;50.998;4.250;2023-04-29T05:45:15;101479.38;;;12.23;68.39
13593;BME280;6867;50.998;4.250;2023-04-29T05:47:41;101477.19;;;12.46;67.93
13593;BME280;6867;50.998;4.250;2023-04-29T05:50:08;101475.34;;;12.47;67.68
13593;BME280;6867;50.998;4.250;2023-04-29T05:52:35;101491.38;;;12.20;68.27
13593;BME280;6867;50.998;4.250;2023-04-29T05:55:04;101493.91;;;12.22;68.60
13593;BME280;6867;50.998;4.250;2023-04-29T05:57:31;101493.75;;;12.43;67.95
13593;BME280;6867;50.998;4.250;2023-04-29T05:59:57;101487.00;;;12.67;67.18
13593;BME280;6867;50.998;4.250;2023-04-29T06:02:25;101485.31;;;12.60;67.22
13593;BME280;6867;50.998;4.250;2023-04-29T06:04:52;101474.56;;;12.73;66.59
13593;BME280;6867;50.998;4.250;2023-04-29T06:07:18;101471.66;;;12.81;66.55
13593;BME280;6867;50.998;4.250;2023-04-29T06:09:45;101491.63;;;12.32;67.19
13593;BME280;6867;50.998;4.250;2023-04-29T06:12:13;101508.75;;;12.59;67.40
13593;BME280;6867;50.998;4.250;2023-04-29T06:14:40;101506.28;;;12.71;67.14
13593;BME280;6867;50.998;4.250;2023-04-29T06:17:07;101500.94;;;12.98;66.61
13593;BME280;6867;50.998;4.250;2023-04-29T06:19:33;101511.53;;;12.92;66.84
13593;BME280;6867;50.998;4.250;2023-04-29T06:22:00;101522.72;;;12.89;66.87
13593;BME280;6867;50.998;4.250;2023-04-29T06:24:27;101511.53;;;12.92;66.69
13593;BME280;6867;50.998;4.250;2023-04-29T06:26:54;101512.75;;;13.03;66.61
13593;BME280;6867;50.998;4.250;2023-04-29T06:29:22;101512.34;;;13.06;66.27
13593;BME280;6867;50.998;4.250;2023-04-29T06:31:48;101515.28;;;13.05;66.14
13593;BME280;6867;50.998;4.250;2023-04-29T06:34:15;101504.88;;;12.95;66.29
13593;BME280;6867;50.998;4.250;2023-04-29T06:36:42;101515.28;;;13.05;66.20
13593;BME280;6867;50.998;4.250;2023-04-29T06:39:09;101525.66;;;13.14;65.96
13593;BME280;6867;50.998;4.250;2023-04-29T06:41:35;101516.50;;;13.15;66.00
13593;BME280;6867;50.998;4.250;2023-04-29T06:44:02;101535.41;;;13.22;65.85
13593;BME280;6867;50.998;4.250;2023-04-29T06:46:30;101532.34;;;13.38;65.71
13593;BME280;6867;50.998;4.250;2023-04-29T06:48:58;101514.88;;;13.41;65.12
13593;BME280;6867;50.998;4.250;2023-04-29T06:51:25;101519.22;;;13.22;65.33
13593;BME280;6867;50.998;4.250;2023-04-29T06:53:52;101538.53;;;13.45;65.44
13593;BME280;6867;50.998;4.250;2023-04-29T06:56:19;101531.50;;;13.44;65.17
13593;BME280;6867;50.998;4.250;2023-04-29T06:58:46;101533.78;;;13.34;65.34
13593;BME280;6867;50.998;4.250;2023-04-29T07:01:12;101539.16;;;13.41;64.74
13593;BME280;6867;50.998;4.250;2023-04-29T07:03:40;101549.34;;;13.52;64.88
13593;BME280;6867;50.998;4.250;2023-04-29T07:06:07;101544.16;;;13.37;65.00
13593;BME280;6867;50.998;4.250;2023-04-29T07:08:34;101554.75;;;13.45;64.94
13593;BME280;6867;50.998;4.250;2023-04-29T07:11:01;101559.13;;;13.47;64.98
13593;BME280;6867;50.998;4.250;2023-04-29T07:13:28;101564.28;;;13.61;65.15
13593;BME280;6867;50.998;4.250;2023-04-29T07:15:56;101562.84;;;13.65;64.89
13593;BME280;6867;50.998;4.250;2023-04-29T07:18:22;101570.72;;;13.74;65.18
13593;BME280;6867;50.998;4.250;2023-04-29T07:20:50;101565.94;;;13.82;64.72
13593;BME280;6867;50.998;4.250;2023-04-29T07:23:17;101570.91;;;13.79;64.80
13593;BME280;6867;50.998;4.250;2023-04-29T07:25:44;101564.47;;;13.86;64.18
13593;BME280;6867;50.998;4.250;2023-04-29T07:28:10;101549.50;;;13.90;63.42
13593;BME280;6867;50.998;4.250;2023-04-29T07:30:37;101539.94;;;13.94;63.45
13593;BME280;6867;50.998;4.250;2023-04-29T07:33:04;101538.28;;;13.93;63.44
13593;BME280;6867;50.998;4.250;2023-04-29T07:35:30;101555.56;;;13.92;63.42
13593;BME280;6867;50.998;4.250;2023-04-29T07:37:58;101547.44;;;13.79;63.42
13593;BME280;6867;50.998;4.250;2023-04-29T07:40:25;101567.00;;;13.88;63.85
13593;BME280;6867;50.998;4.250;2023-04-29T07:42:52;101574.00;;;14.02;63.64
13593;BME280;6867;50.998;4.250;2023-04-29T07:45:18;101558.03;;;13.94;63.44
13593;BME280;6867;50.998;4.250;2023-04-29T07:47:45;101559.03;;;14.13;63.36
13593;BME280;6867;50.998;4.250;2023-04-29T07:50:12;101560.56;;;14.60;62.98
13593;BME280;6867;50.998;4.250;2023-04-29T07:52:39;101549.91;;;14.72;61.96
13593;BME280;6867;50.998;4.250;2023-04-29T07:55:07;101526.78;;;15.08;61.05
13593;BME280;6867;50.998;4.250;2023-04-29T07:57:34;101518.16;;;14.92;60.72
13593;BME280;6867;50.998;4.250;2023-04-29T08:00:01;101541.00;;;15.28;60.83
13593;BME280;6867;50.998;4.250;2023-04-29T08:02:28;101527.41;;;15.85;59.79
13593;BME280;6867;50.998;4.250;2023-04-29T08:04:55;101466.28;;;15.71;58.28
13593;BME280;6867;50.998;4.250;2023-04-29T08:07:21;101470.88;;;16.07;58.13
13593;BME280;6867;50.998;4.250;2023-04-29T08:09:48;101451.28;;;16.23;57.26
13593;BME280;6867;50.998;4.250;2023-04-29T08:12:16;101473.22;;;16.03;57.36
13593;BME280;6867;50.998;4.250;2023-04-29T08:14:43;101455.06;;;16.52;56.40
13593;BME280;6867;50.998;4.250;2023-04-29T08:17:10;101442.56;;;16.63;55.78
13593;BME280;6867;50.998;4.250;2023-04-29T08:19:36;101464.88;;;16.95;55.77
13593;BME280;6867;50.998;4.250;2023-04-29T08:22:03;101429.97;;;16.99;54.92
13593;BME280;6867;50.998;4.250;2023-04-29T08:24:30;101433.38;;;16.94;54.85
13593;BME280;6867;50.998;4.250;2023-04-29T08:26:58;101423.66;;;16.44;55.34
13593;BME280;6867;50.998;4.250;2023-04-29T08:29:26;101418.88;;;17.12;53.96
13593;BME280;6867;50.998;4.250;2023-04-29T08:31:52;101422.19;;;17.37;53.42
13593;BME280;6867;50.998;4.250;2023-04-29T08:34:19;101455.47;;;17.21;54.21
13593;BME280;6867;50.998;4.250;2023-04-29T08:36:46;101445.19;;;17.00;54.25
13593;BME280;6867;50.998;4.250;2023-04-29T08:39:13;101442.00;;;17.26;53.59
13593;BME280;6867;50.998;4.250;2023-04-29T08:41:40;101431.03;;;17.56;52.94
13593;BME280;6867;50.998;4.250;2023-04-29T08:44:09;101425.16;;;18.00;52.37
13593;BME280;6867;50.998;4.250;2023-04-29T08:46:37;101403.63;;;17.81;51.97
13593;BME280;6867;50.998;4.250;2023-04-29T08:49:05;101422.19;;;17.37;52.90
13593;BME280;6867;50.998;4.250;2023-04-29T08:51:32;101400.91;;;17.81;51.69
13593;BME280;6867;50.998;4.250;2023-04-29T08:53:59;101396.50;;;17.80;51.18
13593;BME280;6867;50.998;4.250;2023-04-29T08:56:27;101408.16;;;17.92;51.24
13593;BME280;6867;50.998;4.250;2023-04-29T08:58:56;101423.81;;;17.85;51.53
13593;BME280;6867;50.998;4.250;2023-04-29T09:01:26;101407.06;;;17.77;51.33
13593;BME280;6867;50.998;4.250;2023-04-29T09:04:04;101439.75;;;17.47;52.41
13593;BME280;6867;50.998;4.250;2023-04-29T09:06:33;101444.56;;;17.91;51.82
13593;BME280;6867;50.998;4.250;2023-04-29T09:09:00;101456.63;;;17.96;51.96
13593;BME280;6867;50.998;4.250;2023-04-29T09:11:29;101437.34;;;17.97;51.53
13593;BME280;6867;50.998;4.250;2023-04-29T09:13:58;101440.47;;;18.17;51.10
13593;BME280;6867;50.998;4.250;2023-04-29T09:16:26;101426.00;;;18.00;51.29
13593;BME280;6867;50.998;4.250;2023-04-29T09:18:53;101425.66;;;18.25;50.37
13593;BME280;6867;50.998;4.250;2023-04-29T09:21:23;101400.13;;;18.26;49.94
13593;BME280;6867;50.998;4.250;2023-04-29T09:23:53;101388.34;;;17.80;50.05
13593;BME280;6867;50.998;4.250;2023-04-29T09:26:20;101397.88;;;18.06;49.90
13593;BME280;6867;50.998;4.250;2023-04-29T09:29:05;101425.72;;;18.71;49.79
13593;BME280;6867;50.998;4.250;2023-04-29T09:31:32;101398.16;;;18.84;48.98
13593;BME280;6867;50.998;4.250;2023-04-29T09:33:58;101422.84;;;19.11;48.89
13593;BME280;6867;50.998;4.250;2023-04-29T09:36:38;101423.25;;;18.86;49.08
13593;BME280;6867;50.998;4.250;2023-04-29T09:39:05;101415.66;;;18.88;48.70
13593;BME280;6867;50.998;4.250;2023-04-29T09:41:37;101409.13;;;18.89;48.46
13593;BME280;6867;50.998;4.250;2023-04-29T09:44:04;101398.72;;;18.69;48.62
13593;BME280;6867;50.998;4.250;2023-04-29T09:46:31;101391.47;;;18.29;48.77
13593;BME280;6867;50.998;4.250;2023-04-29T09:48:58;101472.31;;;18.05;50.77
13593;BME280;6867;50.998;4.250;2023-04-29T09:51:25;101439.75;;;18.22;49.39
13593;BME280;6867;50.998;4.250;2023-04-29T09:53:54;101470.28;;;18.81;49.70
13593;BME280;6867;50.998;4.250;2023-04-29T09:56:20;101419.91;;;19.34;47.71
13593;BME280;6867;50.998;4.250;2023-04-29T09:58:48;101392.50;;;20.29;46.08
13593;BME280;6867;50.998;4.250;2023-04-29T10:01:14;101328.53;;;20.47;44.65
13593;BME280;6867;50.998;4.250;2023-04-29T10:03:46;101336.44;;;19.89;45.56
13593;BME280;6867;50.998;4.250;2023-04-29T10:06:16;101380.47;;;19.59;46.52
13593;BME280;6867;50.998;4.250;2023-04-29T10:08:45;101314.06;;;20.14;44.47
13593;BME280;6867;50.998;4.250;2023-04-29T10:11:15;101332.38;;;20.19;44.87
13593;BME280;6867;50.998;4.250;2023-04-29T10:13:42;101272.19;;;19.98;43.68
13593;BME280;6867;50.998;4.250;2023-04-29T10:16:16;101317.59;;;19.44;45.03
13593;BME280;6867;50.998;4.250;2023-04-29T10:18:50;101341.28;;;19.21;45.67
13593;BME280;6867;50.998;4.250;2023-04-29T10:21:20;101405.91;;;18.30;48.17
13593;BME280;6867;50.998;4.250;2023-04-29T10:23:47;101447.69;;;18.24;48.85
13593;BME280;6867;50.998;4.250;2023-04-29T10:26:17;101478.38;;;17.96;49.93
13593;BME280;6867;50.998;4.250;2023-04-29T10:28:46;101493.38;;;18.38;49.79
13593;BME280;6867;50.998;4.250;2023-04-29T10:31:16;101493.72;;;18.02;50.13
13593;BME280;6867;50.998;4.250;2023-04-29T10:33:44;101500.09;;;18.76;49.37
13593;BME280;6867;50.998;4.250;2023-04-29T10:36:12;101499.44;;;19.31;48.82
13593;BME280;6867;50.998;4.250;2023-04-29T10:38:43;101402.91;;;19.61;46.55
13593;BME280;6867;50.998;4.250;2023-04-29T10:41:18;101395.22;;;20.83;44.68
13593;BME280;6867;50.998;4.250;2023-04-29T10:43:45;101321.75;;;21.24;43.03
13593;BME280;6867;50.998;4.250;2023-04-29T10:46:20;101357.72;;;21.53;43.23
13593;BME280;6867;50.998;4.250;2023-04-29T10:48:48;101317.03;;;21.19;42.89
13593;BME280;6867;50.998;4.250;2023-04-29T10:51:32;101272.47;;;20.02;43.14
13593;BME280;6867;50.998;4.250;2023-04-29T10:54:01;101326.16;;;19.69;44.30
13593;BME280;6867;50.998;4.250;2023-04-29T10:56:37;101352.41;;;19.58;45.04
13593;BME280;6867;50.998;4.250;2023-04-29T10:59:04;101416.91;;;18.97;46.92
13593;BME280;6867;50.998;4.250;2023-04-29T11:01:45;101423.75;;;19.16;46.63
13593;BME280;6867;50.998;4.250;2023-04-29T11:04:12;101417.13;;;19.29;46.45
13593;BME280;6867;50.998;4.250;2023-04-29T11:06:44;101436.13;;;19.07;46.99
13593;BME280;6867;50.998;4.250;2023-04-29T11:09:19;101417.47;;;18.08;47.92
13593;BME280;6867;50.998;4.250;2023-04-29T11:11:58;101450.06;;;18.49;47.81
13593;BME280;6867;50.998;4.250;2023-04-29T11:14:29;101475.13;;;18.79;48.12
13593;BME280;6867;50.998;4.250;2023-04-29T11:16:57;101481.50;;;19.52;46.96
13593;BME280;6867;50.998;4.250;2023-04-29T11:19:27;101426.31;;;20.06;45.53
13593;BME280;6867;50.998;4.250;2023-04-29T11:24:56;101425.13;;;19.75;45.93
13593;BME280;6867;50.998;4.250;2023-04-29T11:27:29;101382.59;;;19.96;44.72
13593;BME280;6867;50.998;4.250;2023-04-29T11:29:57;101435.47;;;19.95;45.71
13593;BME280;6867;50.998;4.250;2023-04-29T11:32:24;101452.41;;;19.97;46.14
13593;BME280;6867;50.998;4.250;2023-04-29T11:34:51;101429.22;;;19.94;45.71
13593;BME280;6867;50.998;4.250;2023-04-29T11:37:19;101423.69;;;19.50;46.13
13593;BME280;6867;50.998;4.250;2023-04-29T11:39:47;101434.84;;;19.65;46.10
13593;BME280;6867;50.998;4.250;2023-04-29T11:42:19;101422.78;;;20.05;45.41
13593;BME280;6867;50.998;4.250;2023-04-29T11:44:50;101422.00;;;20.10;45.15
13593;BME280;6867;50.998;4.250;2023-04-29T11:47:17;101402.13;;;20.36;44.50
13593;BME280;6867;50.998;4.250;2023-04-29T11:49:44;101370.22;;;19.88;44.48
13593;BME280;6867;50.998;4.250;2023-04-29T11:52:11;101399.13;;;19.28;45.77
13593;BME280;6867;50.998;4.250;2023-04-29T11:54:39;101382.41;;;19.80;44.63
13593;BME280;6867;50.998;4.250;2023-04-29T11:57:09;101399.47;;;19.93;44.96
13593;BME280;6867;50.998;4.250;2023-04-29T11:59:36;101357.69;;;20.14;43.78
13593;BME280;6867;50.998;4.250;2023-04-29T12:02:05;101357.53;;;20.85;42.98
13593;BME280;6867;50.998;4.250;2023-04-29T12:04:31;101354.88;;;21.37;42.21
13593;BME280;6867;50.998;4.250;2023-04-29T12:06:58;101338.44;;;22.00;41.18
13593;BME280;6867;50.998;4.250;2023-04-29T12:09:25;101316.78;;;21.16;42.12
13593;BME280;6867;50.998;4.250;2023-04-29T12:11:51;101319.00;;;21.97;40.86
13593;BME280;6867;50.998;4.250;2023-04-29T12:14:18;101258.25;;;21.84;39.80
13593;BME280;6867;50.998;4.250;2023-04-29T12:16:45;101270.34;;;22.45;39.07
13593;BME280;6867;50.998;4.250;2023-04-29T12:19:14;101269.47;;;23.00;38.15
13593;BME280;6867;50.998;4.250;2023-04-29T12:21:47;101258.03;;;23.48;37.60
13593;BME280;6867;50.998;4.250;2023-04-29T12:24:16;101259.81;;;23.18;37.98
13593;BME280;6867;50.998;4.250;2023-04-29T12:26:44;101274.69;;;22.97;38.19
13593;BME280;6867;50.998;4.250;2023-04-29T12:29:12;101299.38;;;22.56;39.21
13593;BME280;6867;50.998;4.250;2023-04-29T12:31:38;101315.78;;;22.61;39.35
13593;BME280;6867;50.998;4.250;2023-04-29T12:34:06;101288.41;;;22.92;38.59
13593;BME280;6867;50.998;4.250;2023-04-29T12:36:34;101255.81;;;22.75;38.21
13593;BME280;6867;50.998;4.250;2023-04-29T12:39:04;101286.25;;;22.32;39.23
13593;BME280;6867;50.998;4.250;2023-04-29T12:41:36;101293.00;;;21.89;39.97
13593;BME280;6867;50.998;4.250;2023-04-29T12:44:05;101306.50;;;22.16;39.88
13593;BME280;6867;50.998;4.250;2023-04-29T12:46:35;101315.16;;;21.87;40.10
13593;BME280;6867;50.998;4.250;2023-04-29T12:49:02;101298.28;;;22.21;39.39
13593;BME280;6867;50.998;4.250;2023-04-29T12:51:29;101312.25;;;22.50;39.17
13593;BME280;6867;50.998;4.250;2023-04-29T12:53:59;101311.13;;;22.31;39.78
13593;BME280;6867;50.998;4.250;2023-04-29T12:56:28;101288.41;;;22.56;38.79
13593;BME280;6867;50.998;4.250;2023-04-29T12:58:55;101296.03;;;23.05;38.25
13593;BME280;6867;50.998;4.250;2023-04-29T13:01:22;101275.63;;;23.42;37.37
13593;BME280;6867;50.998;4.250;2023-04-29T13:03:49;101251.94;;;22.86;37.49
13593;BME280;6867;50.998;4.250;2023-04-29T13:06:16;101271.72;;;22.68;38.12
13593;BME280;6867;50.998;4.250;2023-04-29T13:08:43;101254.91;;;23.10;37.39